createdAt,value
2023-01-07T00:01:53.446Z,67.33
2023-01-07T00:04:21.427Z,67.15
2023-01-07T00:06:49.445Z,66.79
2023-01-07T00:09:16.938Z,66.29
2023-01-07T00:11:45.055Z,65.47
2023-01-07T00:14:14.083Z,64.13
2023-01-07T00:16:41.937Z,67.28
2023-01-07T00:19:12.831Z,66.43
2023-01-07T00:21:40.119Z,67.01
2023-01-07T00:24:07.483Z,65.34
2023-01-07T00:26:35.993Z,67.00
2023-01-07T00:29:04.466Z,66.26
2023-01-07T00:31:34.609Z,65.84
2023-01-07T00:34:01.895Z,64.25
2023-01-07T00:36:31.013Z,65.81
2023-01-07T00:39:10.383Z,65.33
2023-01-07T00:41:37.768Z,64.49
2023-01-07T00:44:06.481Z,65.26
2023-01-07T00:46:34.033Z,64.46
2023-01-07T00:49:02.026Z,64.92
2023-01-07T00:51:29.404Z,65.56
2023-01-07T00:53:56.805Z,65.19
2023-01-07T00:56:24.147Z,64.65
2023-01-07T00:58:51.423Z,63.47
2023-01-07T01:01:19.211Z,63.75
2023-01-07T01:03:46.815Z,64.12
2023-01-07T01:06:16.310Z,65.08
2023-01-07T01:08:45.713Z,64.57
2023-01-07T01:11:14.710Z,64.23
2023-01-07T01:13:42.880Z,63.62
2023-01-07T01:16:12.644Z,66.08
2023-01-07T01:18:40.518Z,65.60
2023-01-07T01:21:12.121Z,64.99
2023-01-07T01:23:40.168Z,65.54
2023-01-07T01:26:10.835Z,63.08
2023-01-07T01:28:38.070Z,64.16
2023-01-07T01:31:08.254Z,63.82
2023-01-07T01:33:49.215Z,65.01
2023-01-07T01:36:17.631Z,63.83
2023-01-07T01:38:44.934Z,63.42
2023-01-07T01:41:16.297Z,64.39
2023-01-07T01:43:45.539Z,62.87
2023-01-07T01:46:46.028Z,63.42
2023-01-07T01:49:22.877Z,63.63
2023-01-07T01:51:58.051Z,65.23
2023-01-07T01:54:26.142Z,64.17
2023-01-07T01:56:55.781Z,63.28
2023-01-07T01:59:25.966Z,62.95
2023-01-07T02:01:55.474Z,63.01
2023-01-07T02:04:24.891Z,64.09
2023-01-07T02:07:00.682Z,66.21
2023-01-07T02:09:30.094Z,66.36
2023-01-07T02:12:07.440Z,65.43
2023-01-07T02:15:01.614Z,64.50
2023-01-07T02:17:54.937Z,64.51
2023-01-07T02:20:41.951Z,63.71
2023-01-07T02:23:31.008Z,64.26
2023-01-07T02:26:32.378Z,65.64
2023-01-07T02:29:22.943Z,64.78
2023-01-07T02:32:07.321Z,63.78
2023-01-07T02:34:40.907Z,64.68
2023-01-07T02:37:35.035Z,65.23
2023-01-07T02:40:27.192Z,64.91
2023-01-07T02:43:06.893Z,65.99
2023-01-07T02:45:53.084Z,65.80
2023-01-07T02:48:21.919Z,67.34
2023-01-07T02:50:49.176Z,67.60
2023-01-07T02:53:18.117Z,67.66
2023-01-07T02:56:36.535Z,66.48
2023-01-07T02:59:23.201Z,68.13
2023-01-07T03:02:00.196Z,67.17
2023-01-07T03:04:45.712Z,65.82
2023-01-07T03:07:45.501Z,66.49
2023-01-07T03:10:26.821Z,65.10
2023-01-07T03:13:05.721Z,67.28
2023-01-07T03:15:37.863Z,65.75
2023-01-07T03:18:22.760Z,66.12
2023-01-07T03:20:53.778Z,65.87
2023-01-07T03:23:23.723Z,64.86
2023-01-07T03:25:52.334Z,65.82
2023-01-07T03:28:23.132Z,66.22
2023-01-07T03:30:51.637Z,66.23
2023-01-07T03:33:27.833Z,64.03
2023-01-07T03:35:57.220Z,65.36
2023-01-07T03:38:25.200Z,62.42
2023-01-07T03:40:53.025Z,64.19
2023-01-07T03:43:22.304Z,64.22
2023-01-07T03:45:50.957Z,64.48
2023-01-07T03:48:18.299Z,64.24
2023-01-07T03:50:45.810Z,66.50
2023-01-07T03:53:13.077Z,64.25
2023-01-07T03:55:44.774Z,64.67
2023-01-07T03:58:12.166Z,64.56
2023-01-07T04:00:39.438Z,62.55
2023-01-07T04:03:15.820Z,63.09
2023-01-07T04:05:46.192Z,62.99
2023-01-07T04:08:14.177Z,64.44
2023-01-07T04:10:42.652Z,62.78
2023-01-07T04:13:11.709Z,64.00
2023-01-07T04:15:41.184Z,62.98
2023-01-07T04:18:09.380Z,66.54
2023-01-07T04:20:36.788Z,63.23
2023-01-07T04:23:04.888Z,64.21
2023-01-07T04:25:32.628Z,64.38
2023-01-07T04:28:03.251Z,62.86
2023-01-07T04:30:30.545Z,61.84
2023-01-07T04:32:57.867Z,62.33
2023-01-07T04:35:25.328Z,64.85
2023-01-07T04:37:52.573Z,65.34
2023-01-07T04:40:19.843Z,64.03
2023-01-07T04:42:47.843Z,64.75
2023-01-07T04:45:15.747Z,65.63
2023-01-07T04:47:43.082Z,66.24
2023-01-07T04:50:10.681Z,65.70
2023-01-07T04:52:38.030Z,66.80
2023-01-07T04:55:06.461Z,68.62
2023-01-07T04:57:33.887Z,65.86
2023-01-07T05:00:01.214Z,67.87
2023-01-07T05:02:28.529Z,67.53
2023-01-07T05:04:55.991Z,65.53
2023-01-07T05:07:23.441Z,68.38
2023-01-07T05:09:51.822Z,66.84
2023-01-07T05:12:19.789Z,66.88
2023-01-07T05:14:47.893Z,67.33
2023-01-07T05:17:15.279Z,68.69
2023-01-07T05:19:43.525Z,70.19
2023-01-07T05:22:12.934Z,70.40
2023-01-07T05:24:41.701Z,71.29
2023-01-07T05:27:09.114Z,72.32
2023-01-07T05:29:38.073Z,71.79
2023-01-07T05:32:05.431Z,70.62
2023-01-07T05:34:33.049Z,68.51
2023-01-07T05:37:00.417Z,70.08
2023-01-07T05:39:27.752Z,70.46
2023-01-07T05:41:55.167Z,69.45
2023-01-07T05:44:25.056Z,71.43
2023-01-07T05:46:52.369Z,70.35
2023-01-07T05:49:19.609Z,70.20
2023-01-07T05:51:46.878Z,71.51
2023-01-07T05:54:14.164Z,70.89
2023-01-07T05:56:41.513Z,71.94
2023-01-07T05:59:09.338Z,72.50
2023-01-07T06:01:36.701Z,70.73
2023-01-07T06:04:04.022Z,74.33
2023-01-07T06:06:31.240Z,71.29
2023-01-07T06:08:58.478Z,72.56
2023-01-07T06:11:25.818Z,70.30
2023-01-07T06:13:53.215Z,72.47
2023-01-07T06:16:20.472Z,72.89
2023-01-07T06:18:47.826Z,73.01
2023-01-07T06:21:16.235Z,71.71
2023-01-07T06:23:43.607Z,72.05
2023-01-07T06:26:10.913Z,71.35
2023-01-07T06:28:38.187Z,70.83
2023-01-07T06:31:05.629Z,71.90
2023-01-07T06:33:33.628Z,73.59
2023-01-07T06:36:01.039Z,73.11
2023-01-07T06:38:28.272Z,74.64
2023-01-07T06:40:55.539Z,73.19
2023-01-07T06:43:22.894Z,71.58
2023-01-07T06:45:50.406Z,70.90
2023-01-07T06:48:17.677Z,69.22
2023-01-07T06:50:45.301Z,71.83
2023-01-07T06:53:13.273Z,70.71
2023-01-07T06:55:40.595Z,72.48
2023-01-07T06:58:07.797Z,71.79
2023-01-07T07:00:35.146Z,72.24
2023-01-07T07:03:02.509Z,71.81
2023-01-07T07:05:29.756Z,72.88
2023-01-07T07:07:57.048Z,73.44
2023-01-07T07:10:24.857Z,71.27
2023-01-07T07:12:52.420Z,69.63
2023-01-07T07:15:19.760Z,70.69
2023-01-07T07:17:47.175Z,72.37
2023-01-07T07:20:14.476Z,72.51
2023-01-07T07:22:48.427Z,71.13
2023-01-07T07:25:15.809Z,71.39
2023-01-07T07:27:46.807Z,72.11
2023-01-07T07:30:17.300Z,72.71
2023-01-07T07:32:44.641Z,71.55
2023-01-07T07:35:12.325Z,72.41
2023-01-07T07:37:39.746Z,72.16
2023-01-07T07:40:09.087Z,71.88
2023-01-07T07:43:09.474Z,69.95
2023-01-07T07:45:25.535Z,72.23
2023-01-07T07:47:52.789Z,72.53
2023-01-07T07:50:20.186Z,70.97
2023-01-07T07:52:47.459Z,71.68
2023-01-07T07:55:20.149Z,72.12
2023-01-07T07:57:54.835Z,75.18
2023-01-07T08:00:23.173Z,72.52
2023-01-07T08:02:50.919Z,71.62
2023-01-07T08:05:18.406Z,71.33
2023-01-07T08:07:45.746Z,70.84
2023-01-07T08:10:13.027Z,70.11
2023-01-07T08:12:40.279Z,70.08
2023-01-07T08:15:08.394Z,70.08
2023-01-07T08:17:36.448Z,70.61
2023-01-07T08:20:05.071Z,70.86
2023-01-07T08:22:33.362Z,71.81
2023-01-07T08:25:00.965Z,69.93
2023-01-07T08:27:28.579Z,70.40
2023-01-07T08:29:56.319Z,69.15
2023-01-07T08:32:24.101Z,70.99
2023-01-07T08:34:51.491Z,71.31
2023-01-07T08:37:18.863Z,70.08
2023-01-07T08:39:46.251Z,70.98
2023-01-07T08:42:13.524Z,73.27
2023-01-07T08:44:40.911Z,71.89
2023-01-07T08:47:08.126Z,71.01
2023-01-07T08:49:35.421Z,69.77
2023-01-07T08:52:02.864Z,71.60
2023-01-07T08:54:30.321Z,68.22
2023-01-07T08:56:58.190Z,69.51
2023-01-07T08:59:25.512Z,71.51
2023-01-07T09:01:52.885Z,72.81
2023-01-07T09:04:20.274Z,71.11
2023-01-07T09:06:47.708Z,70.16
2023-01-07T09:09:16.584Z,70.87
2023-01-07T09:11:43.911Z,69.79
2023-01-07T09:14:11.403Z,68.89
2023-01-07T09:16:38.683Z,69.22
2023-01-07T09:19:06.146Z,69.24
2023-01-07T09:21:33.567Z,68.59
2023-01-07T09:24:00.842Z,67.90
2023-01-07T09:26:28.378Z,67.28
2023-01-07T09:28:55.659Z,68.90
2023-01-07T09:31:24.120Z,66.75
2023-01-07T09:33:51.815Z,66.47
2023-01-07T09:36:19.012Z,67.97
2023-01-07T09:38:46.227Z,68.68
2023-01-07T09:41:28.371Z,68.57
2023-01-07T09:44:01.978Z,68.86
2023-01-07T09:46:32.533Z,67.71
2023-01-07T09:49:02.308Z,66.87
2023-01-07T09:51:35.580Z,68.02
2023-01-07T09:54:04.570Z,68.06
2023-01-07T09:56:36.829Z,67.76
2023-01-07T09:59:05.482Z,65.61
2023-01-07T10:01:55.840Z,66.18
2023-01-07T10:04:37.857Z,67.25
2023-01-07T10:07:17.551Z,65.35
2023-01-07T10:09:57.369Z,66.46
2023-01-07T10:12:32.529Z,64.41
2023-01-07T10:15:13.009Z,65.26
2023-01-07T10:17:56.648Z,65.82
2023-01-07T10:20:51.546Z,65.13
2023-01-07T10:23:35.852Z,63.68
2023-01-07T10:26:03.378Z,64.80
2023-01-07T10:29:00.127Z,64.19
2023-01-07T10:31:27.815Z,63.06
2023-01-07T10:33:57.296Z,63.05
2023-01-07T10:36:38.510Z,62.01
2023-01-07T10:39:18.064Z,62.36
2023-01-07T10:42:09.904Z,64.55
2023-01-07T10:44:37.041Z,63.05
2023-01-07T10:47:16.381Z,63.57
2023-01-07T10:49:55.629Z,66.17
2023-01-07T10:52:41.561Z,63.58
2023-01-07T10:55:33.839Z,63.21
2023-01-07T10:58:02.700Z,63.20
2023-01-07T11:00:29.962Z,64.34
2023-01-07T11:02:59.094Z,63.58
2023-01-07T11:05:29.183Z,64.82
2023-01-07T11:07:56.804Z,63.58
2023-01-07T11:10:30.350Z,63.07
2023-01-07T11:13:01.906Z,63.14
2023-01-07T11:15:32.382Z,64.43
2023-01-07T11:18:02.238Z,62.91
2023-01-07T11:20:44.822Z,62.76
2023-01-07T11:23:27.418Z,62.16
2023-01-07T11:25:55.349Z,60.24
2023-01-07T11:28:26.894Z,61.39
2023-01-07T11:30:59.343Z,61.09
2023-01-07T11:34:02.958Z,60.21
2023-01-07T11:36:43.547Z,59.99
2023-01-07T11:39:18.271Z,59.37
2023-01-07T11:41:58.311Z,59.47
2023-01-07T11:44:26.358Z,61.82
2023-01-07T11:46:54.173Z,60.81
2023-01-07T11:49:25.677Z,59.16
2023-01-07T11:51:53.369Z,60.52
2023-01-07T11:54:25.763Z,61.25
2023-01-07T11:56:55.118Z,60.83
2023-01-07T11:59:27.954Z,60.85
2023-01-07T12:01:59.324Z,59.93
2023-01-07T12:07:07.385Z,59.74
2023-01-07T12:09:37.739Z,58.71
2023-01-07T12:12:34.915Z,59.85
2023-01-07T12:15:17.800Z,58.37
2023-01-07T12:17:50.839Z,58.64
2023-01-07T12:20:39.463Z,59.24
2023-01-07T12:23:19.192Z,57.53
2023-01-07T12:25:49.688Z,57.73
2023-01-07T12:28:19.215Z,57.75
2023-01-07T12:30:54.499Z,58.42
2023-01-07T12:33:38.616Z,60.04
2023-01-07T12:36:13.613Z,58.49
2023-01-07T12:38:50.998Z,59.62
2023-01-07T12:41:25.801Z,58.93
2023-01-07T12:44:02.627Z,60.16
2023-01-07T12:46:39.176Z,58.21
2023-01-07T12:49:16.973Z,59.06
2023-01-07T12:51:58.919Z,59.57
2023-01-07T12:54:52.483Z,60.17
2023-01-07T12:57:23.779Z,59.29
2023-01-07T13:00:18.748Z,60.37
2023-01-07T13:03:23.378Z,61.29
2023-01-07T13:06:15.496Z,60.56
2023-01-07T13:08:51.920Z,60.64
2023-01-07T13:11:44.100Z,60.21
2023-01-07T13:14:22.336Z,60.62
2023-01-07T13:16:49.751Z,61.29
2023-01-07T13:19:17.111Z,60.92
2023-01-07T13:21:46.272Z,60.22
2023-01-07T13:24:56.162Z,61.21
2023-01-07T13:27:23.106Z,61.31
2023-01-07T13:29:59.381Z,63.47
2023-01-07T13:32:38.738Z,62.59
2023-01-07T13:35:27.777Z,61.95
2023-01-07T13:38:26.730Z,62.03
2023-01-07T13:41:12.663Z,61.68
2023-01-07T13:43:58.650Z,63.22
2023-01-07T13:46:33.449Z,64.82
2023-01-07T13:49:00.956Z,64.25
2023-01-07T13:51:33.682Z,64.61
2023-01-07T13:54:01.179Z,64.18
2023-01-07T13:56:29.441Z,64.68
2023-01-07T13:58:58.162Z,64.15
2023-01-07T14:01:30.816Z,64.94
2023-01-07T14:04:04.157Z,64.65
2023-01-07T14:06:43.046Z,66.59
2023-01-07T14:09:25.850Z,65.45
2023-01-07T14:12:11.227Z,64.70
2023-01-07T14:15:19.563Z,65.35
2023-01-07T14:18:06.579Z,63.47
2023-01-07T14:20:47.825Z,63.01
2023-01-07T14:23:37.120Z,64.76
2023-01-07T14:26:29.192Z,64.55
2023-01-07T14:29:15.445Z,65.57
2023-01-07T14:31:43.004Z,64.39
2023-01-07T14:34:36.585Z,64.95
2023-01-07T14:37:09.052Z,65.67
2023-01-07T14:39:44.397Z,64.92
2023-01-07T14:42:21.167Z,65.26
2023-01-07T14:44:51.394Z,64.47
2023-01-07T14:47:44.853Z,65.42
2023-01-07T14:50:29.979Z,65.10
2023-01-07T14:53:16.303Z,65.86
2023-01-07T14:55:52.535Z,65.81
2023-01-07T14:59:04.537Z,67.20
2023-01-07T15:01:43.981Z,67.96
2023-01-07T15:04:31.921Z,67.62
2023-01-07T15:07:01.995Z,66.95
2023-01-07T15:10:00.436Z,66.58
2023-01-07T15:12:49.133Z,69.17
2023-01-07T15:15:40.566Z,68.42
2023-01-07T15:18:09.292Z,68.04
2023-01-07T15:20:49.223Z,67.94
2023-01-07T15:23:56.163Z,71.10
2023-01-07T15:26:50.224Z,71.54
2023-01-07T15:29:35.950Z,72.28
2023-01-07T15:32:15.138Z,71.87
2023-01-07T15:34:43.583Z,72.36
2023-01-07T15:37:13.266Z,73.19
2023-01-07T15:39:46.798Z,73.45
2023-01-07T15:42:16.303Z,74.53
2023-01-07T15:44:43.814Z,72.90
2023-01-07T15:47:42.342Z,73.50
2023-01-07T15:50:24.360Z,72.92
2023-01-07T15:52:57.442Z,73.05
2023-01-07T15:55:26.240Z,73.77
2023-01-07T15:58:03.833Z,74.52
2023-01-07T16:00:31.833Z,74.00
2023-01-07T16:02:59.782Z,74.13
2023-01-07T16:05:27.430Z,73.51
2023-01-07T16:08:01.742Z,75.01
2023-01-07T16:10:35.754Z,76.97
2023-01-07T16:13:18.378Z,75.90
2023-01-07T16:15:45.960Z,76.80
2023-01-07T16:18:14.802Z,75.64
2023-01-07T16:20:57.732Z,75.53
2023-01-07T16:23:30.626Z,76.77
2023-01-07T16:26:07.965Z,77.32
2023-01-07T16:28:46.158Z,76.25
2023-01-07T16:31:16.611Z,77.17
2023-01-07T16:33:44.577Z,75.87
2023-01-07T16:36:15.254Z,73.60
2023-01-07T16:38:44.115Z,75.94
2023-01-07T16:41:20.305Z,75.47
2023-01-07T16:43:47.953Z,73.67
2023-01-07T16:46:33.147Z,75.78
2023-01-07T16:49:20.793Z,74.27
2023-01-07T16:51:53.105Z,72.94
2023-01-07T16:54:26.456Z,72.86
2023-01-07T16:56:56.121Z,73.87
2023-01-07T16:59:27.752Z,72.85
2023-01-07T17:01:55.914Z,73.34
2023-01-07T17:04:30.056Z,74.00
2023-01-07T17:06:59.240Z,73.46
2023-01-07T17:09:31.657Z,73.74
2023-01-07T17:11:59.076Z,73.54
2023-01-07T17:14:48.013Z,74.26
2023-01-07T17:17:19.588Z,74.49
2023-01-07T17:19:54.332Z,73.79
2023-01-07T17:22:32.882Z,74.57
2023-01-07T17:25:07.021Z,73.98
2023-01-07T17:27:35.078Z,73.78
2023-01-07T17:30:04.462Z,73.11
2023-01-07T17:32:34.271Z,72.48
2023-01-07T17:35:03.161Z,72.80
2023-01-07T17:37:30.492Z,71.76
2023-01-07T17:40:00.687Z,74.41
2023-01-07T17:42:48.325Z,72.42
2023-01-07T17:45:18.368Z,73.18
2023-01-07T17:47:45.683Z,74.03
2023-01-07T17:50:14.899Z,74.25
2023-01-07T17:52:44.722Z,75.40
2023-01-07T17:55:17.425Z,74.47
2023-01-07T17:57:45.079Z,73.42
2023-01-07T18:00:22.574Z,73.00
2023-01-07T18:02:50.938Z,72.83
2023-01-07T18:05:23.344Z,73.20
2023-01-07T18:07:51.851Z,74.54
2023-01-07T18:10:26.195Z,74.56
2023-01-07T18:12:53.588Z,73.91
2023-01-07T18:15:25.754Z,74.78
2023-01-07T18:17:53.374Z,74.69
2023-01-07T18:20:21.900Z,74.32
2023-01-07T18:22:50.158Z,75.74
2023-01-07T18:25:21.127Z,74.51
2023-01-07T18:27:52.866Z,73.64
2023-01-07T18:30:21.983Z,72.35
2023-01-07T18:32:52.907Z,73.37
2023-01-07T18:35:20.437Z,74.30
2023-01-07T18:37:48.759Z,73.47
2023-01-07T18:40:16.057Z,73.25
2023-01-07T18:42:44.497Z,72.49
2023-01-07T18:45:12.621Z,73.09
2023-01-07T18:47:40.134Z,73.13
2023-01-07T18:50:08.431Z,72.95
2023-01-07T18:52:38.695Z,72.94
2023-01-07T18:55:07.381Z,72.92
2023-01-07T18:57:34.760Z,72.82
2023-01-07T19:00:02.542Z,72.28
2023-01-07T19:02:30.457Z,72.17
2023-01-07T19:04:58.857Z,72.85
2023-01-07T19:07:26.148Z,74.57
2023-01-07T19:09:53.737Z,73.96
2023-01-07T19:12:21.322Z,73.41
2023-01-07T19:14:48.743Z,73.33
2023-01-07T19:17:15.963Z,73.53
2023-01-07T19:19:48.366Z,72.86
2023-01-07T19:22:16.652Z,73.21
2023-01-07T19:24:44.656Z,73.57
2023-01-07T19:27:12.170Z,73.19
2023-01-07T19:29:39.587Z,72.46
2023-01-07T19:32:07.045Z,73.88
2023-01-07T19:34:34.391Z,72.55
2023-01-07T19:37:01.728Z,71.87
2023-01-07T19:39:29.044Z,72.96
2023-01-07T19:41:56.395Z,72.76
2023-01-07T19:44:23.712Z,72.41
2023-01-07T19:46:51.030Z,72.32
2023-01-07T19:49:18.504Z,71.54
2023-01-07T19:51:45.876Z,71.07
2023-01-07T19:54:16.019Z,71.55
2023-01-07T19:56:46.258Z,72.32
2023-01-07T19:59:13.525Z,71.95
2023-01-07T20:01:42.065Z,72.05
2023-01-07T20:04:09.676Z,70.76
2023-01-07T20:06:38.906Z,71.48
2023-01-07T20:09:11.109Z,71.96
2023-01-07T20:11:39.419Z,71.73
2023-01-07T20:14:11.739Z,73.59
2023-01-07T20:16:41.533Z,73.54
2023-01-07T20:19:12.577Z,71.71
2023-01-07T20:21:40.137Z,73.24
2023-01-07T20:24:07.851Z,74.59
2023-01-07T20:26:36.522Z,74.77
2023-01-07T20:29:03.984Z,76.86
2023-01-07T20:31:31.560Z,76.90
2023-01-07T20:33:59.929Z,76.83
2023-01-07T20:36:29.447Z,76.69
2023-01-07T20:38:56.896Z,75.97
2023-01-07T20:41:28.058Z,76.27
2023-01-07T20:44:00.192Z,78.03
2023-01-07T20:46:29.230Z,74.68
2023-01-07T20:48:57.407Z,77.62
2023-01-07T20:51:24.964Z,75.60
2023-01-07T20:53:52.380Z,75.99
2023-01-07T20:56:21.785Z,74.79
2023-01-07T20:58:49.465Z,74.88
2023-01-07T21:01:20.043Z,73.64
2023-01-07T21:03:48.118Z,73.98
2023-01-07T21:06:17.615Z,73.85
2023-01-07T21:08:45.825Z,72.93
2023-01-07T21:11:15.790Z,74.02
2023-01-07T21:13:43.149Z,74.19
2023-01-07T21:16:10.735Z,74.46
2023-01-07T21:18:38.601Z,74.15
2023-01-07T21:21:17.110Z,73.49
2023-01-07T21:23:46.976Z,74.81
2023-01-07T21:26:14.924Z,74.60
2023-01-07T21:28:44.391Z,74.56
2023-01-07T21:31:14.058Z,73.22
2023-01-07T21:33:42.337Z,72.63
2023-01-07T21:36:19.559Z,74.27
2023-01-07T21:38:47.572Z,73.41
2023-01-07T21:41:16.275Z,73.45
2023-01-07T21:43:44.531Z,73.06
2023-01-07T21:46:12.912Z,72.90
2023-01-07T21:48:42.285Z,74.34
2023-01-07T21:51:27.765Z,74.06
2023-01-07T21:53:57.316Z,73.56
2023-01-07T21:56:31.278Z,74.25
2023-01-07T21:58:59.356Z,74.44
2023-01-07T22:01:28.808Z,73.92
2023-01-07T22:03:58.647Z,73.52
2023-01-07T22:06:30.497Z,72.83
2023-01-07T22:08:59.744Z,73.69
2023-01-07T22:11:28.301Z,73.03
2023-01-07T22:13:57.349Z,72.78
2023-01-07T22:16:26.822Z,72.83
2023-01-07T22:18:54.388Z,72.97
2023-01-07T22:21:21.802Z,72.24
2023-01-07T22:23:49.263Z,73.25
2023-01-07T22:26:17.881Z,73.01
2023-01-07T22:28:49.482Z,72.96
2023-01-07T22:31:23.197Z,73.91
2023-01-07T22:33:50.729Z,73.64
2023-01-07T22:36:44.162Z,73.32
2023-01-07T22:39:16.073Z,74.38
2023-01-07T22:41:44.227Z,73.77
2023-01-07T22:44:19.741Z,73.89
2023-01-07T22:46:48.406Z,73.83
2023-01-07T22:49:15.810Z,73.63
2023-01-07T22:51:47.050Z,74.14
2023-01-07T22:54:15.301Z,74.51
2023-01-07T22:56:42.886Z,73.33
2023-01-07T22:59:10.261Z,73.31
2023-01-07T23:01:39.123Z,74.78
2023-01-07T23:04:06.792Z,74.84
2023-01-07T23:06:34.489Z,75.28
2023-01-07T23:09:01.731Z,74.39
2023-01-07T23:11:47.509Z,72.92
2023-01-07T23:14:15.941Z,73.72
2023-01-07T23:16:43.337Z,72.67
2023-01-07T23:19:10.807Z,73.35
2023-01-07T23:21:42.388Z,72.96
2023-01-07T23:24:11.167Z,71.50
2023-01-07T23:26:39.140Z,71.28
2023-01-07T23:29:06.695Z,71.10
2023-01-07T23:31:34.842Z,70.12
2023-01-07T23:34:03.764Z,70.46
2023-01-07T23:36:31.099Z,70.65
2023-01-07T23:38:58.364Z,70.31
2023-01-07T23:41:25.787Z,70.73
2023-01-07T23:43:53.223Z,71.20
2023-01-07T23:46:20.485Z,71.37
2023-01-07T23:48:47.840Z,70.61
2023-01-07T23:51:19.925Z,69.99
2023-01-07T23:53:47.316Z,70.12
2023-01-07T23:56:17.829Z,69.91
2023-01-07T23:58:45.060Z,70.35
